Time;durP1;ratioP1;P1;durP2;ratioP2;P2;SDS_P1;SDS_P2;PMS_P1;PMS_P2;Temp;Humidity;BMP_temperature;BMP_pressure;BME280_temperature;BME280_humidity;BME280_pressure;Samples;Min_cycle;Max_cycle;Signal;HPM_P1;HPM_P2
2021/08/11 00:00:05;;;;;;;;;;;;;;;31.51;32.54;99509.69;5030205;28;20029;-37
2021/08/11 00:02:30;;;;;;;14.45;6.78;;;;;;;31.25;32.76;99508.16;5029945;28;19909;-37
2021/08/11 00:04:56;;;;;;;11.07;6.78;;;;;;;31.04;33.33;99497.34;5033408;28;20033;-37
2021/08/11 00:07:21;;;;;;;10.57;6.72;;;;;;;30.73;33.91;99498.72;5033187;28;20026;-37
2021/08/11 00:09:46;;;;;;;9.82;6.88;;;;;;;30.91;33.37;99493.81;5033334;28;20111;-37
2021/08/11 00:12:12;;;;;;;9.00;6.85;;;;;;;30.89;33.37;99490.56;5032816;28;20030;-36
2021/08/11 00:14:37;;;;;;;10.55;6.20;;;;;;;30.70;33.49;99495.88;5033083;28;20030;-37
2021/08/11 00:17:03;;;;;;;10.05;6.35;;;;;;;30.78;33.54;99487.50;5033114;28;20117;-37
2021/08/11 00:19:28;;;;;;;11.45;6.25;;;;;;;30.76;33.56;99492.53;5033187;28;20037;-36
2021/08/11 00:21:54;;;;;;;8.27;6.25;;;;;;;30.88;33.65;99488.16;5031246;28;20111;-35
2021/08/11 00:24:19;;;;;;;9.85;6.53;;;;;;;30.93;34.54;99487.97;5032840;28;20034;-35
2021/08/11 00:26:45;;;;;;;8.00;6.43;;;;;;;31.00;33.96;99496.44;5032662;28;20029;-36
2021/08/11 00:29:10;;;;;;;10.65;7.07;;;;;;;31.00;33.61;99488.19;5032834;28;20029;-37
2021/08/11 00:31:36;;;;;;;10.77;6.70;;;;;;;31.01;33.81;99492.53;5032967;28;20030;-37
2021/08/11 00:34:01;;;;;;;7.80;6.55;;;;;;;31.05;33.79;99496.16;5032860;28;20032;-37
2021/08/11 00:36:26;;;;;;;9.90;6.13;;;;;;;30.97;33.61;99495.16;5032638;28;20013;-36
2021/08/11 00:38:52;;;;;;;8.05;6.30;;;;;;;30.93;34.09;99491.50;5032656;28;20025;-37
2021/08/11 00:41:17;;;;;;;14.23;6.82;;;;;;;30.97;33.91;99483.38;5032649;28;20036;-36
2021/08/11 00:43:43;;;;;;;10.52;6.55;;;;;;;30.85;33.89;99491.63;5032432;28;20025;-37
2021/08/11 00:46:09;;;;;;;10.48;6.45;;;;;;;30.79;34.11;99483.63;5031977;28;20460;-36
2021/08/11 00:48:35;;;;;;;10.90;6.40;;;;;;;30.66;34.67;99487.50;5032590;28;20026;-36
2021/08/11 00:51:01;;;;;;;11.90;6.57;;;;;;;30.57;35.27;99478.59;5032465;28;20021;-37
2021/08/11 00:53:27;;;;;;;9.73;6.63;;;;;;;30.57;35.06;99484.09;5014450;28;20508;-38
2021/08/11 00:55:52;;;;;;;8.93;6.68;;;;;;;30.63;35.12;99479.16;5030963;28;20061;-37
2021/08/11 00:58:18;;;;;;;10.98;6.30;;;;;;;30.70;34.76;99482.94;5014277;28;20072;-37
2021/08/11 01:00:45;;;;;;;11.00;6.88;;;;;;;30.67;35.48;99478.13;5030773;28;20029;-37
2021/08/11 01:03:22;;;;;;;7.95;6.50;;;;;;;30.53;35.27;99474.94;5030741;28;20113;-38
2021/08/11 01:05:48;;;;;;;9.20;6.55;;;;;;;30.57;35.63;99478.59;5031410;28;20051;-37
2021/08/11 01:08:14;;;;;;;10.10;6.40;;;;;;;30.62;35.45;99477.59;5031800;28;20034;-38
2021/08/11 01:10:42;;;;;;;10.82;6.82;;;;;;;30.60;35.79;99483.41;5030480;28;20068;-38
2021/08/11 01:13:09;;;;;;;11.00;6.57;;;;;;;30.63;35.72;99481.91;5030456;28;20040;-38
2021/08/11 01:15:36;;;;;;;10.43;6.65;;;;;;;30.67;35.96;99486.34;5032056;28;20032;-37
2021/08/11 01:18:01;;;;;;;11.80;6.55;;;;;;;30.54;35.57;99487.50;5032017;28;20029;-37
2021/08/11 01:20:27;;;;;;;8.35;6.72;;;;;;;30.36;35.62;99475.97;5031684;28;20461;-37
2021/08/11 01:22:59;;;;;;;7.80;6.70;;;;;;;30.13;36.34;99484.59;5030248;28;20025;-37
2021/08/11 01:25:32;;;;;;;11.07;6.80;;;;;;;30.11;36.66;99484.16;5031372;28;20472;-37
2021/08/11 01:28:34;;;;;;;8.32;6.85;;;;;;;29.89;36.87;99471.66;5030265;28;20024;-37
2021/08/11 01:31:15;;;;;;;9.32;6.78;;;;;;;29.89;37.11;99479.06;5008129;28;20504;-36
2021/08/11 01:33:52;;;;;;;11.73;6.93;;;;;;;29.66;37.19;99476.69;5031411;28;20142;-36
2021/08/11 01:36:35;;;;;;;8.73;6.63;;;;;;;29.43;37.58;99473.53;5031295;28;20110;-37
2021/08/11 01:39:15;;;;;;;8.15;6.60;;;;;;;29.39;37.81;99480.81;5031551;28;20033;-37
2021/08/11 01:42:08;;;;;;;11.07;6.88;;;;;;;29.50;37.63;99470.25;5031402;28;20037;-36
2021/08/11 01:44:39;;;;;;;8.85;6.90;;;;;;;29.26;37.95;99466.25;5027431;28;20159;-36
2021/08/11 01:47:10;;;;;;;8.38;7.22;;;;;;;29.02;38.58;99467.72;5029972;28;20037;-36
2021/08/11 01:49:36;;;;;;;10.80;7.10;;;;;;;29.08;38.58;99473.78;5031255;28;20033;-36
2021/08/11 01:52:02;;;;;;;13.38;7.38;;;;;;;29.08;38.61;99470.25;5029881;28;20044;-36
2021/08/11 01:54:27;;;;;;;10.30;7.18;;;;;;;29.16;38.46;99469.41;5029574;28;20033;-37
2021/08/11 01:56:54;;;;;;;11.90;6.80;;;;;;;29.10;38.72;99470.72;5029715;28;20145;-36
2021/08/11 01:59:19;;;;;;;10.80;7.15;;;;;;;29.08;38.71;99476.53;5029828;28;20057;-36
2021/08/11 02:01:45;;;;;;;12.50;7.40;;;;;;;29.04;38.59;99472.88;5029738;28;20428;-36
2021/08/11 02:04:10;;;;;;;9.52;7.13;;;;;;;29.03;38.66;99483.03;5029369;28;20083;-36
2021/08/11 02:06:36;;;;;;;11.00;7.22;;;;;;;29.12;38.87;99482.94;5041844;28;20056;-36
2021/08/11 02:09:02;;;;;;;10.27;7.03;;;;;;;29.08;38.87;99483.97;5032934;28;20028;-36
2021/08/11 02:11:27;;;;;;;10.93;7.43;;;;;;;29.03;39.02;99487.69;5050900;28;20411;-37
2021/08/11 02:13:53;;;;;;;10.43;7.15;;;;;;;28.90;39.47;99480.53;5050799;28;20421;-37
2021/08/11 02:16:19;;;;;;;9.27;7.10;;;;;;;28.89;39.74;99485.22;5049758;28;20021;-37
2021/08/11 02:18:45;;;;;;;10.90;7.65;;;;;;;28.94;39.45;99478.72;5050390;28;20554;-37
2021/08/11 02:21:10;;;;;;;15.77;7.75;;;;;;;28.82;39.63;99487.66;5050670;28;20028;-37
2021/08/11 02:23:36;;;;;;;10.35;7.35;;;;;;;28.84;39.47;99478.00;5050591;28;20523;-37
2021/08/11 02:26:19;;;;;;;13.98;8.10;;;;;;;28.57;39.70;99451.09;5049988;28;20029;-37
2021/08/11 02:28:47;;;;;;;13.10;7.45;;;;;;;28.67;39.45;99478.09;5033326;28;20105;-38
2021/08/11 02:31:16;;;;;;;12.50;7.55;;;;;;;28.66;39.74;99477.28;5049100;28;20104;-37
2021/08/11 02:33:52;;;;;;;17.10;7.20;;;;;;;28.57;40.05;99476.53;5049075;28;20056;-37
2021/08/11 02:36:27;;;;;;;17.38;7.88;;;;;;;28.64;40.31;99481.50;5033192;28;20021;-37
2021/08/11 02:38:53;;;;;;;14.27;7.45;;;;;;;28.79;39.74;99475.44;5049227;28;20024;-37
2021/08/11 02:41:44;;;;;;;13.02;7.50;;;;;;;28.66;39.64;99449.13;5032524;28;20451;-36
2021/08/11 02:44:21;;;;;;;20.77;7.43;;;;;;;28.78;40.09;99478.50;5045332;28;20044;-36
2021/08/11 02:46:47;;;;;;;11.02;7.60;;;;;;;28.62;40.07;99464.59;5048929;28;20036;-36
2021/08/11 02:49:18;;;;;;;13.50;7.55;;;;;;;28.60;40.10;99484.09;5048722;28;20048;-36
2021/08/11 02:51:43;;;;;;;15.68;8.40;;;;;;;28.57;40.21;99479.25;5032850;28;20025;-36
2021/08/11 02:54:11;;;;;;;11.90;7.45;;;;;;;28.65;40.26;99469.41;5032208;28;20626;-37
2021/08/11 02:56:39;;;;;;;13.90;7.50;;;;;;;28.69;40.33;99470.34;5049860;28;20029;-36
2021/08/11 02:59:04;;;;;;;14.05;7.18;;;;;;;28.63;40.45;99471.66;5049992;28;20032;-36
2021/08/11 03:01:30;;;;;;;15.45;8.48;;;;;;;28.68;40.32;99471.50;5048820;28;20033;-36
2021/08/11 03:03:56;;;;;;;13.00;7.85;;;;;;;28.53;40.71;99475.59;5048561;28;20031;-36
2021/08/11 03:06:21;;;;;;;15.75;8.38;;;;;;;28.51;40.79;99475.09;5038969;28;20045;-36
2021/08/11 03:08:47;;;;;;;15.60;8.70;;;;;;;28.57;40.55;99479.25;5028783;28;20036;-36
2021/08/11 03:11:13;;;;;;;14.30;7.97;;;;;;;28.41;40.91;99489.16;5028664;28;20033;-37
2021/08/11 03:13:42;;;;;;;13.60;8.60;;;;;;;28.29;41.03;99478.88;5028376;28;20429;-36
2021/08/11 03:16:08;;;;;;;;;;;;;;;28.46;40.95;99500.72;5029350;28;20021;-37
2021/08/11 03:18:33;;;;;;;16.58;8.05;;;;;;;28.30;41.16;99485.97;5030056;28;19909;-37
2021/08/11 03:20:59;;;;;;;13.27;8.25;;;;;;;28.30;41.25;99494.19;5030260;28;20181;-36
2021/08/11 03:23:24;;;;;;;16.30;8.73;;;;;;;28.16;41.49;99497.13;5029892;28;20029;-36
2021/08/11 03:25:50;;;;;;;32.95;19.63;;;;;;;28.03;41.68;99498.94;5030195;28;20424;-36
2021/08/11 03:28:15;;;;;;;22.45;14.65;;;;;;;28.18;41.44;99494.06;5029846;28;20028;-36
2021/08/11 03:30:42;;;;;;;68.78;52.47;;;;;;;28.19;41.43;99498.41;5029822;28;20103;-36
2021/08/11 03:33:07;;;;;;;38.15;26.48;;;;;;;28.15;41.28;99503.72;5029921;28;20029;-36
2021/08/11 03:35:33;;;;;;;14.63;9.13;;;;;;;28.25;41.58;99499.81;5029738;28;20020;-36
2021/08/11 03:37:58;;;;;;;11.15;7.82;;;;;;;28.26;41.00;99506.91;5030692;28;20025;-36
2021/08/11 03:40:24;;;;;;;14.48;8.07;;;;;;;28.34;40.81;99508.00;5033719;28;20025;-36
2021/08/11 03:42:49;;;;;;;15.43;8.32;;;;;;;28.47;40.74;99518.72;5033562;28;20060;-36
2021/08/11 03:45:15;;;;;;;13.93;8.70;;;;;;;28.34;40.99;99513.47;5033607;28;20029;-36
2021/08/11 03:47:44;;;;;;;12.85;7.80;;;;;;;28.24;40.79;99515.44;5032368;28;20037;-36
2021/08/11 03:50:13;;;;;;;9.60;7.93;;;;;;;28.38;40.47;99517.97;5033496;28;20104;-36
2021/08/11 03:52:39;;;;;;;16.02;7.43;;;;;;;28.42;40.28;99524.38;5033897;28;20037;-36
2021/08/11 03:55:05;;;;;;;64.00;46.15;;;;;;;28.56;40.26;99531.59;5033692;28;20405;-37
2021/08/11 03:57:31;;;;;;;60.05;41.15;;;;;;;28.45;40.51;99531.16;5033486;28;20087;-35
2021/08/11 03:59:56;;;;;;;18.58;13.60;;;;;;;28.60;40.24;99538.84;5033253;28;20049;-36
2021/08/11 04:02:22;;;;;;;22.80;15.35;;;;;;;28.52;40.28;99533.38;5033497;28;20484;-34
2021/08/11 04:04:47;;;;;;;47.22;33.17;;;;;;;28.64;39.94;99542.50;5033503;28;20045;-37
2021/08/11 04:07:13;;;;;;;13.00;10.23;;;;;;;28.83;39.61;99544.84;5032972;28;20515;-37
2021/08/11 04:09:38;;;;;;;12.75;7.03;;;;;;;29.02;39.32;99529.91;5033271;28;20025;-37
2021/08/11 04:12:04;;;;;;;9.60;7.07;;;;;;;29.17;38.81;99529.34;5033141;28;20036;-37
2021/08/11 04:14:29;;;;;;;9.13;7.10;;;;;;;29.44;37.92;99525.25;5032722;28;20496;-37
2021/08/11 04:16:55;;;;;;;17.85;8.25;;;;;;;29.58;37.78;99527.72;5032947;28;20018;-37
2021/08/11 04:19:20;;;;;;;14.32;7.95;;;;;;;29.40;38.24;99529.03;5032876;28;20547;-37
2021/08/11 04:21:46;;;;;;;11.82;7.32;;;;;;;29.48;38.24;99533.63;5032582;28;20029;-37
2021/08/11 04:24:11;;;;;;;10.07;7.28;;;;;;;29.55;38.02;99525.66;5032794;28;20087;-37
2021/08/11 04:26:36;;;;;;;9.57;7.03;;;;;;;29.76;37.38;99528.41;5032882;28;20071;-37
2021/08/11 04:29:02;;;;;;;13.48;7.15;;;;;;;29.92;37.15;99534.06;5032634;28;20473;-37
2021/08/11 04:31:27;;;;;;;8.55;6.60;;;;;;;29.77;37.53;99524.50;5032519;28;20045;-37
2021/08/11 04:33:53;;;;;;;12.55;7.15;;;;;;;30.14;37.25;99524.63;5032886;28;20510;-36
2021/08/11 04:36:18;;;;;;;11.10;6.82;;;;;;;30.50;36.19;99519.53;5032757;28;20017;-37
2021/08/11 04:38:44;;;;;;;8.95;6.93;;;;;;;30.76;35.85;99497.22;5032578;28;20041;-37
2021/08/11 04:41:12;;;;;;;21.60;15.55;;;;;;;31.08;35.43;99520.22;5032517;28;20037;-37
2021/08/11 04:43:37;;;;;;;13.57;9.88;;;;;;;31.17;35.01;99526.38;5032393;28;20083;-37
2021/08/11 04:46:05;;;;;;;11.93;7.32;;;;;;;31.42;34.72;99529.06;5032307;28;20029;-37
2021/08/11 04:48:30;;;;;;;10.70;7.00;;;;;;;31.67;34.48;99527.03;5031870;28;20108;-37
2021/08/11 04:50:56;;;;;;;37.88;27.20;;;;;;;31.98;33.97;99536.50;5032500;28;20081;-37
2021/08/11 04:53:21;;;;;;;21.60;11.88;;;;;;;32.14;33.44;99520.88;5032392;28;20547;-36
2021/08/11 04:55:48;;;;;;;15.00;8.27;;;;;;;32.24;33.83;99533.28;5032119;28;20026;-36
2021/08/11 04:58:13;;;;;;;15.90;7.70;;;;;;;32.38;33.45;99534.81;5031869;28;20485;-36
2021/08/11 05:00:38;;;;;;;16.17;7.28;;;;;;;32.68;32.85;99532.41;5032110;28;20036;-36
2021/08/11 05:03:04;;;;;;;13.65;6.95;;;;;;;32.88;32.62;99523.06;5032105;28;20021;-36
2021/08/11 05:05:29;;;;;;;11.15;7.50;;;;;;;33.03;32.44;99540.69;5031711;28;20393;-37
2021/08/11 05:07:55;;;;;;;12.88;7.18;;;;;;;33.30;31.55;99521.59;5031878;28;20026;-36
2021/08/11 05:10:21;;;;;;;9.23;6.82;;;;;;;33.48;31.56;99531.03;5031725;28;20389;-36
2021/08/11 05:12:47;;;;;;;11.15;7.18;;;;;;;33.44;31.40;99535.69;5031671;28;20021;-37
2021/08/11 05:15:12;;;;;;;11.23;7.10;;;;;;;33.54;31.10;99522.50;5031964;28;20038;-37
2021/08/11 05:17:38;;;;;;;12.52;7.03;;;;;;;33.71;31.33;99526.78;5031935;28;20029;-37
2021/08/11 05:20:03;;;;;;;10.35;6.60;;;;;;;34.12;30.54;99530.72;5031746;28;20021;-38
2021/08/11 05:22:29;;;;;;;13.20;7.00;;;;;;;34.25;30.11;99532.16;5031764;28;20044;-45
2021/08/11 05:24:54;;;;;;;10.15;7.60;;;;;;;34.31;29.85;99538.16;5031658;28;20021;-37
2021/08/11 05:27:20;;;;;;;15.77;6.80;;;;;;;34.12;30.36;99543.69;5031307;28;20473;-37
2021/08/11 05:29:45;;;;;;;9.00;7.18;;;;;;;34.22;30.16;99541.16;5031730;28;20037;-37
2021/08/11 05:32:17;;;;;;;14.77;7.22;;;;;;;34.53;29.96;99550.34;5031286;28;20032;-36
2021/08/11 05:34:43;;;;;;;11.50;6.70;;;;;;;34.81;29.71;99552.00;5031432;28;20025;-37
2021/08/11 05:37:08;;;;;;;15.38;7.03;;;;;;;35.15;29.29;99555.66;5031554;28;20519;-37
2021/08/11 05:39:34;;;;;;;11.30;7.05;;;;;;;35.38;28.90;99561.13;5031595;28;20017;-38
2021/08/11 05:41:59;;;;;;;14.95;7.20;;;;;;;35.49;28.44;99563.22;5031114;28;20036;-37
2021/08/11 05:44:25;;;;;;;13.88;6.75;;;;;;;35.44;28.62;99558.81;5031726;28;20033;-37
2021/08/11 05:46:50;;;;;;;10.55;6.68;;;;;;;35.93;28.53;99565.31;5030992;28;20017;-37
2021/08/11 05:49:16;;;;;;;11.10;6.70;;;;;;;36.38;27.50;99561.44;5031479;28;20472;-36
2021/08/11 05:51:41;;;;;;;12.85;6.47;;;;;;;36.69;27.13;99570.44;5031406;28;20017;-36
2021/08/11 05:54:07;;;;;;;20.17;7.05;;;;;;;36.35;27.52;99572.50;5031110;28;20025;-37
2021/08/11 05:56:33;;;;;;;13.38;7.18;;;;;;;36.77;26.88;99574.84;5031055;28;20029;-37
2021/08/11 05:58:58;;;;;;;16.33;7.10;;;;;;;36.69;27.33;99564.91;5030947;28;20035;-37
2021/08/11 06:01:24;;;;;;;13.27;7.00;;;;;;;37.24;26.66;99571.59;5030571;28;20485;-36
2021/08/11 06:03:56;;;;;;;11.43;6.72;;;;;;;37.53;25.94;99575.31;5029815;28;20024;-37
2021/08/11 06:06:23;;;;;;;8.80;6.88;;;;;;;37.91;25.55;99571.06;5041371;28;20052;-38
2021/08/11 06:08:48;;;;;;;9.38;6.35;;;;;;;37.96;25.00;99572.66;5049442;28;20024;-37
2021/08/11 06:11:14;;;;;;;13.82;6.60;;;;;;;37.69;25.36;99569.44;5050575;28;20028;-38
2021/08/11 06:13:39;;;;;;;15.05;6.00;;;;;;;37.50;25.19;99573.28;5050642;28;20073;-37
2021/08/11 06:16:05;;;;;;;8.48;5.97;;;;;;;37.27;25.67;99562.50;5050533;28;20547;-37
2021/08/11 06:18:30;;;;;;;8.77;6.57;;;;;;;37.54;25.14;99563.78;5050123;28;20025;-37
2021/08/11 06:20:56;;;;;;;16.70;6.35;;;;;;;37.97;24.51;99563.16;5050147;28;20021;-38
2021/08/11 06:23:21;;;;;;;10.13;6.10;;;;;;;38.42;24.15;99554.47;5050164;28;20028;-36
2021/08/11 06:25:47;;;;;;;9.70;6.28;;;;;;;38.78;24.13;99563.63;5049973;28;20469;-37
2021/08/11 06:28:12;;;;;;;10.90;6.38;;;;;;;39.18;23.27;99566.34;5050391;28;20430;-37
2021/08/11 06:30:38;;;;;;;9.85;6.13;;;;;;;39.58;22.64;99533.59;5050424;28;20017;-37
2021/08/11 06:33:03;;;;;;;10.75;6.28;;;;;;;40.11;22.09;99570.72;5050429;28;20412;-37
2021/08/11 06:35:28;;;;;;;11.32;6.18;;;;;;;40.31;22.22;99570.94;5049965;28;20458;-37
2021/08/11 06:37:54;;;;;;;8.40;5.95;;;;;;;40.52;21.47;99575.56;5049975;28;20028;-38
2021/08/11 06:40:20;;;;;;;10.20;6.50;;;;;;;40.17;21.51;99560.72;5049984;28;20523;-37
2021/08/11 06:42:46;;;;;;;12.43;6.07;;;;;;;39.91;21.90;99560.09;5049424;28;20036;-37
2021/08/11 06:45:12;;;;;;;11.13;6.07;;;;;;;40.38;21.92;99563.34;5050030;28;20019;-38
2021/08/11 06:47:37;;;;;;;15.95;6.13;;;;;;;40.60;21.77;99565.97;5049757;28;20032;-38
2021/08/11 06:50:04;;;;;;;12.15;5.60;;;;;;;40.89;21.63;99563.72;5049630;28;20025;-38
2021/08/11 06:52:33;;;;;;;10.68;5.90;;;;;;;40.30;21.65;99559.00;5050034;28;20071;-38
2021/08/11 06:55:00;;;;;;;12.38;6.30;;;;;;;39.37;23.06;99562.31;5049985;28;20029;-37
2021/08/11 06:57:26;;;;;;;11.87;5.80;;;;;;;40.33;22.07;99560.22;5050343;28;20017;-38
2021/08/11 06:59:51;;;;;;;11.65;5.72;;;;;;;41.13;20.79;99559.06;5048419;28;20634;-39
2021/08/11 07:02:17;;;;;;;8.65;6.40;;;;;;;41.54;20.19;99558.19;5049869;28;20020;-38
2021/08/11 07:04:42;;;;;;;10.18;6.13;;;;;;;41.51;20.62;99550.66;5049905;28;20021;-38
2021/08/11 07:07:08;;;;;;;8.32;6.05;;;;;;;41.65;20.30;99560.06;5032337;28;20041;-38
2021/08/11 07:09:33;;;;;;;9.00;5.63;;;;;;;41.92;20.39;99566.44;5029445;28;20032;-39
2021/08/11 07:11:59;;;;;;;10.10;6.30;;;;;;;42.22;19.55;99566.84;5030760;28;20017;-38
2021/08/11 07:14:24;;;;;;;14.75;6.53;;;;;;;41.34;20.18;99562.84;5033902;28;20021;-39
2021/08/11 07:16:50;;;;;;;14.95;6.45;;;;;;;40.53;22.02;99563.25;5033983;28;20477;-38
2021/08/11 07:19:15;;;;;;;11.55;5.75;;;;;;;41.32;20.93;99565.25;5033907;28;20437;-38
2021/08/11 07:21:41;;;;;;;7.88;5.65;;;;;;;41.79;20.10;99566.25;5033515;28;20021;-38
2021/08/11 07:24:06;;;;;;;12.18;5.70;;;;;;;41.91;20.08;99573.25;5033817;28;20025;-38
2021/08/11 07:26:32;;;;;;;10.57;6.07;;;;;;;42.37;19.66;99563.38;5033905;28;20388;-38
2021/08/11 07:28:57;;;;;;;10.15;5.82;;;;;;;42.91;19.00;99554.09;5033529;28;20083;-38
2021/08/11 07:31:22;;;;;;;8.25;5.47;;;;;;;42.91;18.81;99551.28;5033731;28;20095;-38
2021/08/11 07:33:48;;;;;;;10.55;5.40;;;;;;;43.39;18.27;99551.16;5033386;28;20095;-38
2021/08/11 07:36:13;;;;;;;9.65;5.65;;;;;;;43.06;18.62;99559.41;5033036;28;20021;-37
2021/08/11 07:38:39;;;;;;;9.70;5.65;;;;;;;42.02;19.32;99558.34;5033410;28;20050;-38
2021/08/11 07:41:04;;;;;;;11.23;5.57;;;;;;;42.76;18.64;99555.53;5033573;28;20017;-39
2021/08/11 07:43:30;;;;;;;9.23;5.55;;;;;;;42.58;18.47;99545.47;5034100;28;20028;-38
2021/08/11 07:45:56;;;;;;;6.60;5.55;;;;;;;42.83;18.03;99538.63;5033383;28;20631;-38
2021/08/11 07:48:21;;;;;;;13.98;5.28;;;;;;;43.14;18.05;99546.84;5033234;28;20523;-37
2021/08/11 07:50:47;;;;;;;7.93;5.22;;;;;;;43.22;17.96;99539.88;5033187;28;20032;-38
2021/08/11 07:53:14;;;;;;;8.43;5.30;;;;;;;43.79;17.25;99543.47;5033240;28;20022;-39
2021/08/11 07:55:39;;;;;;;6.65;5.50;;;;;;;43.92;17.49;99538.78;5034049;28;20104;-39
2021/08/11 07:58:05;;;;;;;8.98;5.78;;;;;;;44.29;16.94;99530.31;5033315;28;20091;-39
2021/08/11 08:00:30;;;;;;;9.95;5.60;;;;;;;42.15;19.02;99535.00;5033296;28;20030;-38
2021/08/11 08:02:56;;;;;;;10.25;5.97;;;;;;;42.67;19.17;99530.94;5032792;28;20024;-39
2021/08/11 08:05:21;;;;;;;9.25;5.43;;;;;;;42.90;18.94;99530.13;5035432;28;20050;-37
2021/08/11 08:07:47;;;;;;;11.93;5.53;;;;;;;42.62;18.81;99533.44;5052847;28;20063;-37
2021/08/11 08:10:13;;;;;;;7.57;5.45;;;;;;;43.06;18.52;99523.81;5053062;28;20045;-38
2021/08/11 08:12:39;;;;;;;13.40;5.82;;;;;;;43.54;17.96;99533.59;5053175;28;20079;-38
2021/08/11 08:15:06;;;;;;;8.48;5.03;;;;;;;43.86;17.74;99526.50;5052769;28;20473;-38
2021/08/11 08:17:31;;;;;;;11.80;5.75;;;;;;;43.32;18.17;99526.94;5051568;28;20029;-39
2021/08/11 08:19:56;;;;;;;11.02;5.60;;;;;;;43.79;17.36;99521.06;5052675;28;20039;-38
2021/08/11 08:22:22;;;;;;;8.70;5.45;;;;;;;43.50;17.63;99518.91;5052443;28;20453;-37
2021/08/11 08:24:54;;;;;;;7.78;5.55;;;;;;;43.74;16.80;99518.81;5052009;28;20028;-38
2021/08/11 08:27:19;;;;;;;6.43;5.05;;;;;;;44.13;16.29;99516.31;5052729;28;20114;-38
2021/08/11 08:29:45;;;;;;;10.02;5.50;;;;;;;43.66;16.41;99520.16;5052512;28;20127;-39
2021/08/11 08:32:11;;;;;;;8.77;5.57;;;;;;;43.78;16.57;99513.91;5052726;28;20028;-38
2021/08/11 08:34:36;;;;;;;10.10;5.30;;;;;;;44.08;16.65;99515.59;5052482;28;20036;-39
2021/08/11 08:37:02;;;;;;;6.50;4.72;;;;;;;44.44;16.23;99499.88;5052559;28;20021;-38
2021/08/11 08:39:27;;;;;;;8.07;4.90;;;;;;;44.80;15.86;99499.75;5052418;28;20032;-37
2021/08/11 08:41:53;;;;;;;9.55;5.40;;;;;;;44.27;15.72;99497.13;5052052;28;20025;-38
2021/08/11 08:44:19;;;;;;;6.30;4.68;;;;;;;44.39;15.49;99492.03;5034507;28;20025;-38
2021/08/11 08:46:44;;;;;;;10.18;5.07;;;;;;;44.64;14.94;99497.75;5051939;28;20433;-39
2021/08/11 08:49:10;;;;;;;7.65;4.70;;;;;;;45.07;15.18;99490.97;5050727;28;20024;-39
2021/08/11 08:51:43;;;;;;;9.85;5.20;;;;;;;45.33;15.13;99493.03;5052045;28;20021;-38
2021/08/11 08:54:10;;;;;;;7.43;4.50;;;;;;;45.70;14.78;99485.88;5052279;28;20479;-38
2021/08/11 08:56:36;;;;;;;5.68;4.45;;;;;;;44.34;15.39;99479.31;5050787;28;20345;-37
2021/08/11 08:59:02;;;;;;;4.93;4.22;;;;;;;44.86;14.68;99469.91;5052154;28;20032;-39
2021/08/11 09:01:27;;;;;;;6.95;4.20;;;;;;;44.63;14.99;99475.75;5052053;28;20028;-39
2021/08/11 09:03:53;;;;;;;6.72;4.80;;;;;;;44.72;14.78;99463.91;5051980;28;20094;-39
2021/08/11 09:06:18;;;;;;;5.40;4.60;;;;;;;44.57;14.57;99461.47;5050187;28;20527;-38
2021/08/11 09:09:16;;;;;;;14.98;4.80;;;;;;;44.94;14.69;99459.28;5051806;28;20021;-38
2021/08/11 09:11:42;;;;;;;9.68;4.40;;;;;;;44.57;15.12;99461.47;5028418;28;20108;-38
2021/08/11 09:14:16;;;;;;;5.72;4.72;;;;;;;43.87;15.03;99452.47;5050272;28;20032;-39
2021/08/11 09:16:49;;;;;;;6.60;4.68;;;;;;;44.16;15.51;99448.19;5051468;28;20017;-38
2021/08/11 09:19:15;;;;;;;7.57;4.80;;;;;;;44.63;15.84;99456.13;5051725;28;20094;-39
2021/08/11 09:21:40;;;;;;;5.70;4.28;;;;;;;44.85;15.30;99448.66;5051426;28;20484;-38
2021/08/11 09:24:18;;;;;;;6.18;4.90;;;;;;;44.74;14.68;99441.78;5051785;28;20079;-38
2021/08/11 09:26:43;;;;;;;10.27;5.07;;;;;;;45.05;15.29;99442.91;5051393;28;20573;-38
2021/08/11 09:29:10;;;;;;;5.80;4.95;;;;;;;45.31;14.82;99444.97;5051159;28;20020;-38
2021/08/11 09:31:35;;;;;;;7.05;5.00;;;;;;;45.47;14.87;99436.44;5051693;28;20040;-38
2021/08/11 09:34:06;;;;;;;7.45;4.80;;;;;;;45.97;14.05;99446.03;5051534;28;20452;-38
2021/08/11 09:36:49;;;;;;;8.05;4.50;;;;;;;46.20;13.69;99436.44;5050188;28;20021;-37
2021/08/11 09:39:16;;;;;;;8.10;4.75;;;;;;;46.03;13.63;99438.59;5050843;28;20025;-37
2021/08/11 09:42:00;;;;;;;6.05;4.95;;;;;;;45.90;13.94;99442.69;5050985;28;20056;-38
2021/08/11 09:44:25;;;;;;;9.38;4.70;;;;;;;44.74;15.04;99430.56;5049643;28;20025;-38
2021/08/11 09:46:51;;;;;;;10.45;4.90;;;;;;;44.59;14.49;99414.16;5051044;28;20143;-39
2021/08/11 09:49:18;;;;;;;6.30;4.55;;;;;;;44.31;14.42;99418.53;5051471;28;20036;-39
2021/08/11 09:51:53;;;;;;;6.18;4.53;;;;;;;44.54;14.31;99411.09;5051081;28;20034;-38
2021/08/11 09:54:19;;;;;;;6.35;5.00;;;;;;;44.72;14.73;99407.78;5050710;28;20028;-38
2021/08/11 09:56:44;;;;;;;7.70;4.90;;;;;;;44.73;14.10;99398.13;5049843;28;20481;-39
2021/08/11 09:59:09;;;;;;;5.68;4.68;;;;;;;44.97;14.27;99405.03;5049547;28;20098;-38
2021/08/11 10:01:35;;;;;;;6.00;5.40;;;;;;;43.05;16.01;99399.13;5049629;28;20033;-39
2021/08/11 10:04:03;;;;;;;7.82;5.13;;;;;;;42.60;16.25;99401.66;5050857;28;20043;-38
2021/08/11 10:06:33;;;;;;;6.97;5.07;;;;;;;43.44;15.02;99403.06;5050658;28;20080;-37
2021/08/11 10:09:19;;;;;;;17.83;5.50;;;;;;;43.03;15.60;99406.34;5050886;28;20025;-38
2021/08/11 10:11:50;;;;;;;8.07;4.70;;;;;;;43.53;15.18;99400.44;5050383;28;20029;-38
2021/08/11 10:14:17;;;;;;;8.40;4.70;;;;;;;43.17;14.81;99408.84;5050812;28;20036;-39
2021/08/11 10:16:42;;;;;;;8.50;4.78;;;;;;;43.65;14.91;99401.75;5050608;28;20032;-37
2021/08/11 10:19:09;;;;;;;12.40;4.88;;;;;;;43.24;14.58;99400.31;5050346;28;20021;-39
2021/08/11 10:22:02;;;;;;;6.75;4.32;;;;;;;43.71;12.44;99394.41;5050923;28;20102;-38
2021/08/11 10:24:31;;;;;;;7.22;4.15;;;;;;;43.85;12.26;99390.47;5048538;28;20040;-37
2021/08/11 10:26:56;;;;;;;7.35;4.32;;;;;;;44.36;11.98;99387.13;5050318;28;20032;-38
2021/08/11 10:29:22;;;;;;;5.00;4.30;;;;;;;44.38;11.98;99386.69;5050610;28;20060;-38
2021/08/11 10:31:48;;;;;;;6.00;4.10;;;;;;;44.55;13.11;99381.84;5050670;28;20021;-39
2021/08/11 10:34:16;;;;;;;5.45;4.38;;;;;;;44.54;12.97;99378.25;5050595;28;20021;-38
2021/08/11 10:36:42;;;;;;;5.40;4.45;;;;;;;44.17;12.99;99374.06;5049268;28;20413;-38
2021/08/11 10:39:07;;;;;;;6.93;4.10;;;;;;;44.47;12.77;99378.41;5050535;28;20025;-39
2021/08/11 10:41:34;;;;;;;6.07;4.40;;;;;;;44.82;13.40;99373.81;5050159;28;20028;-38
2021/08/11 10:44:00;;;;;;;5.55;4.20;;;;;;;44.56;12.93;99372.97;5050421;28;20082;-39
2021/08/11 10:46:39;;;;;;;6.00;4.13;;;;;;;44.24;12.89;99368.25;5049859;28;20033;-37
2021/08/11 10:49:05;;;;;;;6.10;4.15;;;;;;;44.80;11.35;99367.06;5032979;28;20037;-38
2021/08/11 10:51:42;;;;;;;4.78;3.63;;;;;;;44.98;10.31;99341.31;5050291;28;20032;-38
2021/08/11 10:54:08;;;;;;;5.35;3.88;;;;;;;45.62;10.12;99352.47;5050050;28;20529;-38
2021/08/11 10:56:44;;;;;;;7.13;4.07;;;;;;;45.20;10.25;99345.00;5048461;28;20115;-38
2021/08/11 10:59:21;;;;;;;4.40;4.00;;;;;;;45.21;10.54;99354.97;5050084;28;20048;-38
2021/08/11 11:01:50;;;;;;;5.23;4.07;;;;;;;45.30;10.89;99345.13;5050465;28;20028;-38
2021/08/11 11:04:37;;;;;;;6.82;4.20;;;;;;;45.71;11.19;99355.41;5049928;28;20027;-39
2021/08/11 11:07:09;;;;;;;6.30;4.10;;;;;;;45.51;10.60;99349.22;5033039;28;20056;-37
2021/08/11 11:09:37;;;;;;;5.80;3.97;;;;;;;45.79;10.71;99345.50;5030039;28;20523;-38
2021/08/11 11:12:18;;;;;;;4.88;4.15;;;;;;;45.94;10.42;99336.56;5030095;28;20038;-38
2021/08/11 11:14:54;;;;;;;5.60;4.00;;;;;;;45.29;11.68;99326.72;5029818;28;20068;-38
2021/08/11 11:17:22;;;;;;;7.45;4.60;;;;;;;45.32;11.66;99314.56;5029762;28;20033;-38
2021/08/11 11:20:09;;;;;;;5.45;4.10;;;;;;;44.09;11.92;99306.16;5029753;28;20037;-39
2021/08/11 11:22:40;;;;;;;5.65;4.10;;;;;;;43.89;12.17;99301.50;5029869;28;20044;-38
2021/08/11 11:25:08;;;;;;;9.77;4.45;;;;;;;44.56;12.40;99307.69;5030041;28;20036;-37
2021/08/11 11:27:42;;;;;;;6.90;4.43;;;;;;;44.70;12.42;99296.81;5029702;28;20160;-38
2021/08/11 11:30:09;;;;;;;6.68;4.50;;;;;;;44.86;12.47;99298.75;5029812;28;20459;-38